sensor_id;sensor_type;location;lat;lon;timestamp;temperature;humidity
70154;DHT22;57519;51.494;-2.626;2023-03-21T00:00:17;10.01;91.05
70154;DHT22;57519;51.494;-2.626;2023-03-21T00:02:43;10.06;91.16
70154;DHT22;57519;51.494;-2.626;2023-03-21T00:05:09;10.01;91.11
70154;DHT22;57519;51.494;-2.626;2023-03-21T00:07:34;10.02;91.10
70154;DHT22;57519;51.494;-2.626;2023-03-21T00:09:59;10.04;91.10
70154;DHT22;57519;51.494;-2.626;2023-03-21T00:12:25;10.02;91.33
70154;DHT22;57519;51.494;-2.626;2023-03-21T00:14:50;10.01;91.44
70154;DHT22;57519;51.494;-2.626;2023-03-21T00:17:18;10.05;91.25
70154;DHT22;57519;51.494;-2.626;2023-03-21T00:19:46;9.95;91.13
70154;DHT22;57519;51.494;-2.626;2023-03-21T00:22:13;9.94;91.35
70154;DHT22;57519;51.494;-2.626;2023-03-21T00:24:38;9.97;91.60
70154;DHT22;57519;51.494;-2.626;2023-03-21T00:27:04;9.93;91.47
70154;DHT22;57519;51.494;-2.626;2023-03-21T00:29:30;9.90;91.89
70154;DHT22;57519;51.494;-2.626;2023-03-21T00:31:55;9.91;91.86
70154;DHT22;57519;51.494;-2.626;2023-03-21T00:34:21;9.94;91.72
70154;DHT22;57519;51.494;-2.626;2023-03-21T00:36:47;9.90;91.88
70154;DHT22;57519;51.494;-2.626;2023-03-21T00:39:12;9.88;91.91
70154;DHT22;57519;51.494;-2.626;2023-03-21T00:41:39;9.88;91.96
70154;DHT22;57519;51.494;-2.626;2023-03-21T00:44:05;9.87;92.12
70154;DHT22;57519;51.494;-2.626;2023-03-21T00:46:30;9.85;92.09
70154;DHT22;57519;51.494;-2.626;2023-03-21T00:48:56;9.84;91.95
70154;DHT22;57519;51.494;-2.626;2023-03-21T00:51:22;9.83;92.12
70154;DHT22;57519;51.494;-2.626;2023-03-21T00:53:55;9.88;91.83
70154;DHT22;57519;51.494;-2.626;2023-03-21T00:56:21;9.88;92.01
70154;DHT22;57519;51.494;-2.626;2023-03-21T00:58:47;9.85;91.99
70154;DHT22;57519;51.494;-2.626;2023-03-21T01:01:13;9.88;91.97
70154;DHT22;57519;51.494;-2.626;2023-03-21T01:03:39;9.85;92.16
70154;DHT22;57519;51.494;-2.626;2023-03-21T01:06:12;9.76;92.44
70154;DHT22;57519;51.494;-2.626;2023-03-21T01:08:41;9.74;92.67
70154;DHT22;57519;51.494;-2.626;2023-03-21T01:11:13;9.73;92.69
70154;DHT22;57519;51.494;-2.626;2023-03-21T01:13:39;9.74;92.91
70154;DHT22;57519;51.494;-2.626;2023-03-21T01:16:05;9.76;92.91
70154;DHT22;57519;51.494;-2.626;2023-03-21T01:18:32;9.74;92.92
70154;DHT22;57519;51.494;-2.626;2023-03-21T01:20:59;9.76;93.04
70154;DHT22;57519;51.494;-2.626;2023-03-21T01:23:26;9.73;93.00
70154;DHT22;57519;51.494;-2.626;2023-03-21T01:25:53;9.70;93.11
70154;DHT22;57519;51.494;-2.626;2023-03-21T01:28:19;9.70;93.16
70154;DHT22;57519;51.494;-2.626;2023-03-21T01:30:45;9.69;93.23
70154;DHT22;57519;51.494;-2.626;2023-03-21T01:33:11;9.71;93.35
70154;DHT22;57519;51.494;-2.626;2023-03-21T01:35:37;9.70;93.17
70154;DHT22;57519;51.494;-2.626;2023-03-21T01:38:02;9.71;93.17
70154;DHT22;57519;51.494;-2.626;2023-03-21T01:40:29;9.73;93.19
70154;DHT22;57519;51.494;-2.626;2023-03-21T01:42:54;9.70;93.38
70154;DHT22;57519;51.494;-2.626;2023-03-21T01:48:25;9.67;93.38
70154;DHT22;57519;51.494;-2.626;2023-03-21T01:50:51;9.69;93.45
70154;DHT22;57519;51.494;-2.626;2023-03-21T01:53:19;9.69;93.66
70154;DHT22;57519;51.494;-2.626;2023-03-21T01:55:46;9.70;93.61
70154;DHT22;57519;51.494;-2.626;2023-03-21T01:58:15;9.66;93.75
70154;DHT22;57519;51.494;-2.626;2023-03-21T02:00:44;9.67;93.75
70154;DHT22;57519;51.494;-2.626;2023-03-21T02:03:10;9.73;93.70
70154;DHT22;57519;51.494;-2.626;2023-03-21T02:08:13;9.73;93.62
70154;DHT22;57519;51.494;-2.626;2023-03-21T02:10:42;9.74;93.52
70154;DHT22;57519;51.494;-2.626;2023-03-21T02:13:08;9.70;93.42
70154;DHT22;57519;51.494;-2.626;2023-03-21T02:15:36;9.74;93.48
70154;DHT22;57519;51.494;-2.626;2023-03-21T02:18:16;9.73;93.50
70154;DHT22;57519;51.494;-2.626;2023-03-21T02:26:30;9.80;93.47
70154;DHT22;57519;51.494;-2.626;2023-03-21T02:37:20;9.74;93.79
70154;DHT22;57519;51.494;-2.626;2023-03-21T02:46:00;9.80;93.68
70154;DHT22;57519;51.494;-2.626;2023-03-21T02:48:37;9.81;93.77
70154;DHT22;57519;51.494;-2.626;2023-03-21T02:51:05;9.81;93.83
70154;DHT22;57519;51.494;-2.626;2023-03-21T02:53:34;9.81;93.77
70154;DHT22;57519;51.494;-2.626;2023-03-21T02:56:01;9.85;93.77
70154;DHT22;57519;51.494;-2.626;2023-03-21T02:58:28;9.81;93.86
70154;DHT22;57519;51.494;-2.626;2023-03-21T03:00:55;9.83;93.67
70154;DHT22;57519;51.494;-2.626;2023-03-21T03:03:22;9.84;93.84
70154;DHT22;57519;51.494;-2.626;2023-03-21T03:05:51;9.83;93.87
70154;DHT22;57519;51.494;-2.626;2023-03-21T03:08:47;9.88;93.86
70154;DHT22;57519;51.494;-2.626;2023-03-21T03:11:25;9.88;93.80
70154;DHT22;57519;51.494;-2.626;2023-03-21T03:14:32;9.87;93.82
70154;DHT22;57519;51.494;-2.626;2023-03-21T03:17:19;9.88;93.84
70154;DHT22;57519;51.494;-2.626;2023-03-21T03:20:16;9.90;93.94
70154;DHT22;57519;51.494;-2.626;2023-03-21T03:22:53;9.88;94.04
70154;DHT22;57519;51.494;-2.626;2023-03-21T03:28:46;9.88;94.04
70154;DHT22;57519;51.494;-2.626;2023-03-21T03:31:15;9.93;94.12
70154;DHT22;57519;51.494;-2.626;2023-03-21T03:33:48;9.93;94.04
70154;DHT22;57519;51.494;-2.626;2023-03-21T03:36:17;9.95;93.98
70154;DHT22;57519;51.494;-2.626;2023-03-21T03:38:45;9.99;93.88
70154;DHT22;57519;51.494;-2.626;2023-03-21T03:41:25;9.99;93.74
70154;DHT22;57519;51.494;-2.626;2023-03-21T03:43:54;10.01;93.72
70154;DHT22;57519;51.494;-2.626;2023-03-21T03:46:33;9.97;93.71
70154;DHT22;57519;51.494;-2.626;2023-03-21T03:49:04;10.01;93.73
70154;DHT22;57519;51.494;-2.626;2023-03-21T03:51:38;10.04;93.82
70154;DHT22;57519;51.494;-2.626;2023-03-21T03:54:11;10.09;93.75
70154;DHT22;57519;51.494;-2.626;2023-03-21T03:56:38;10.11;93.53
70154;DHT22;57519;51.494;-2.626;2023-03-21T03:59:04;10.11;93.36
70154;DHT22;57519;51.494;-2.626;2023-03-21T04:01:34;10.09;93.40
70154;DHT22;57519;51.494;-2.626;2023-03-21T04:04:00;10.08;93.47
70154;DHT22;57519;51.494;-2.626;2023-03-21T04:06:26;10.11;93.50
70154;DHT22;57519;51.494;-2.626;2023-03-21T04:08:54;10.11;93.32
70154;DHT22;57519;51.494;-2.626;2023-03-21T04:11:20;10.15;93.31
70154;DHT22;57519;51.494;-2.626;2023-03-21T04:13:46;10.16;93.05
70154;DHT22;57519;51.494;-2.626;2023-03-21T04:16:11;10.11;93.09
70154;DHT22;57519;51.494;-2.626;2023-03-21T04:18:38;10.02;93.05
70154;DHT22;57519;51.494;-2.626;2023-03-21T04:21:12;10.02;93.05
70154;DHT22;57519;51.494;-2.626;2023-03-21T04:23:38;10.04;93.16
70154;DHT22;57519;51.494;-2.626;2023-03-21T04:26:13;10.02;93.25
70154;DHT22;57519;51.494;-2.626;2023-03-21T04:28:39;10.06;93.22
70154;DHT22;57519;51.494;-2.626;2023-03-21T04:31:06;10.12;93.04
70154;DHT22;57519;51.494;-2.626;2023-03-21T04:33:33;10.22;92.87
70154;DHT22;57519;51.494;-2.626;2023-03-21T04:36:04;10.21;92.64
70154;DHT22;57519;51.494;-2.626;2023-03-21T04:38:31;10.19;92.72
70154;DHT22;57519;51.494;-2.626;2023-03-21T04:40:58;10.23;92.69
70154;DHT22;57519;51.494;-2.626;2023-03-21T04:43:25;10.26;92.50
70154;DHT22;57519;51.494;-2.626;2023-03-21T04:45:53;10.28;92.19
70154;DHT22;57519;51.494;-2.626;2023-03-21T04:48:18;10.32;92.05
70154;DHT22;57519;51.494;-2.626;2023-03-21T04:50:45;10.31;92.08
70154;DHT22;57519;51.494;-2.626;2023-03-21T04:56:51;10.28;92.07
70154;DHT22;57519;51.494;-2.626;2023-03-21T04:59:17;10.29;92.16
70154;DHT22;57519;51.494;-2.626;2023-03-21T05:01:43;10.31;92.23
70154;DHT22;57519;51.494;-2.626;2023-03-21T05:04:11;10.25;92.38
70154;DHT22;57519;51.494;-2.626;2023-03-21T05:06:37;10.28;92.44
70154;DHT22;57519;51.494;-2.626;2023-03-21T05:09:03;10.28;92.49
70154;DHT22;57519;51.494;-2.626;2023-03-21T05:11:34;10.31;92.60
70154;DHT22;57519;51.494;-2.626;2023-03-21T05:14:08;10.23;92.57
70154;DHT22;57519;51.494;-2.626;2023-03-21T05:16:35;10.25;92.58
70154;DHT22;57519;51.494;-2.626;2023-03-21T05:19:01;10.32;92.24
70154;DHT22;57519;51.494;-2.626;2023-03-21T05:21:30;10.23;92.11
70154;DHT22;57519;51.494;-2.626;2023-03-21T05:24:13;10.21;91.87
70154;DHT22;57519;51.494;-2.626;2023-03-21T05:26:39;10.08;91.95
70154;DHT22;57519;51.494;-2.626;2023-03-21T05:29:05;10.04;92.22
70154;DHT22;57519;51.494;-2.626;2023-03-21T05:31:31;9.98;92.51
70154;DHT22;57519;51.494;-2.626;2023-03-21T05:33:56;10.01;92.53
70154;DHT22;57519;51.494;-2.626;2023-03-21T05:36:22;10.01;92.49
70154;DHT22;57519;51.494;-2.626;2023-03-21T05:38:48;9.97;92.42
70154;DHT22;57519;51.494;-2.626;2023-03-21T05:41:15;9.90;92.44
70154;DHT22;57519;51.494;-2.626;2023-03-21T05:43:40;9.88;92.69
70154;DHT22;57519;51.494;-2.626;2023-03-21T05:46:07;9.87;92.63
70154;DHT22;57519;51.494;-2.626;2023-03-21T05:48:32;9.80;92.64
70154;DHT22;57519;51.494;-2.626;2023-03-21T05:50:59;9.76;92.83
70154;DHT22;57519;51.494;-2.626;2023-03-21T05:53:27;9.76;92.99
70154;DHT22;57519;51.494;-2.626;2023-03-21T05:55:53;9.74;92.95
70154;DHT22;57519;51.494;-2.626;2023-03-21T05:58:18;9.73;92.97
70154;DHT22;57519;51.494;-2.626;2023-03-21T06:00:44;9.71;92.89
70154;DHT22;57519;51.494;-2.626;2023-03-21T06:03:09;9.73;93.05
70154;DHT22;57519;51.494;-2.626;2023-03-21T06:05:35;9.73;92.96
70154;DHT22;57519;51.494;-2.626;2023-03-21T06:08:01;9.77;92.82
70154;DHT22;57519;51.494;-2.626;2023-03-21T06:10:26;9.84;92.82
70154;DHT22;57519;51.494;-2.626;2023-03-21T06:12:52;9.87;92.71
70154;DHT22;57519;51.494;-2.626;2023-03-21T06:15:17;9.91;92.34
70154;DHT22;57519;51.494;-2.626;2023-03-21T06:17:42;9.95;92.20
70154;DHT22;57519;51.494;-2.626;2023-03-21T06:23:30;10.06;91.86
70154;DHT22;57519;51.494;-2.626;2023-03-21T06:25:55;10.09;91.57
70154;DHT22;57519;51.494;-2.626;2023-03-21T06:28:21;10.16;91.54
70154;DHT22;57519;51.494;-2.626;2023-03-21T06:30:46;10.16;91.54
70154;DHT22;57519;51.494;-2.626;2023-03-21T06:33:12;10.18;91.49
70154;DHT22;57519;51.494;-2.626;2023-03-21T06:35:37;10.22;91.24
70154;DHT22;57519;51.494;-2.626;2023-03-21T06:38:03;10.19;91.46
70154;DHT22;57519;51.494;-2.626;2023-03-21T06:40:28;10.26;91.21
70154;DHT22;57519;51.494;-2.626;2023-03-21T06:42:54;10.32;91.08
70154;DHT22;57519;51.494;-2.626;2023-03-21T06:45:19;10.38;91.28
70154;DHT22;57519;51.494;-2.626;2023-03-21T06:47:45;10.38;91.14
70154;DHT22;57519;51.494;-2.626;2023-03-21T06:50:10;10.39;90.91
70154;DHT22;57519;51.494;-2.626;2023-03-21T06:52:36;10.48;90.77
70154;DHT22;57519;51.494;-2.626;2023-03-21T06:55:01;10.48;90.54
70154;DHT22;57519;51.494;-2.626;2023-03-21T06:57:26;10.48;90.58
70154;DHT22;57519;51.494;-2.626;2023-03-21T06:59:52;10.48;90.61
70154;DHT22;57519;51.494;-2.626;2023-03-21T07:02:20;10.49;90.58
70154;DHT22;57519;51.494;-2.626;2023-03-21T07:04:57;10.43;90.72
70154;DHT22;57519;51.494;-2.626;2023-03-21T07:07:25;10.45;90.78
70154;DHT22;57519;51.494;-2.626;2023-03-21T07:09:53;10.49;90.89
70154;DHT22;57519;51.494;-2.626;2023-03-21T07:12:19;10.53;90.72
70154;DHT22;57519;51.494;-2.626;2023-03-21T07:14:46;10.63;90.73
70154;DHT22;57519;51.494;-2.626;2023-03-21T07:17:12;10.64;90.75
70154;DHT22;57519;51.494;-2.626;2023-03-21T07:19:37;10.67;90.80
70154;DHT22;57519;51.494;-2.626;2023-03-21T07:22:03;10.74;90.71
70154;DHT22;57519;51.494;-2.626;2023-03-21T07:24:29;10.89;90.48
70154;DHT22;57519;51.494;-2.626;2023-03-21T07:26:54;11.06;90.14
70154;DHT22;57519;51.494;-2.626;2023-03-21T07:29:25;11.06;89.73
70154;DHT22;57519;51.494;-2.626;2023-03-21T07:32:06;11.19;89.57
70154;DHT22;57519;51.494;-2.626;2023-03-21T07:38:38;11.52;88.57
70154;DHT22;57519;51.494;-2.626;2023-03-21T07:44:47;11.70;88.34
70154;DHT22;57519;51.494;-2.626;2023-03-21T07:47:13;11.82;87.60
70154;DHT22;57519;51.494;-2.626;2023-03-21T07:49:38;11.91;87.49
70154;DHT22;57519;51.494;-2.626;2023-03-21T07:52:04;11.97;87.82
70154;DHT22;57519;51.494;-2.626;2023-03-21T07:54:30;12.03;87.27
70154;DHT22;57519;51.494;-2.626;2023-03-21T07:56:56;12.11;87.67
70154;DHT22;57519;51.494;-2.626;2023-03-21T07:59:22;12.08;86.79
70154;DHT22;57519;51.494;-2.626;2023-03-21T08:01:48;12.13;86.70
70154;DHT22;57519;51.494;-2.626;2023-03-21T08:04:13;12.05;86.74
70154;DHT22;57519;51.494;-2.626;2023-03-21T08:06:39;11.97;86.59
70154;DHT22;57519;51.494;-2.626;2023-03-21T08:09:04;11.90;86.77
70154;DHT22;57519;51.494;-2.626;2023-03-21T08:11:30;11.82;87.05
70154;DHT22;57519;51.494;-2.626;2023-03-21T08:13:59;11.75;86.94
70154;DHT22;57519;51.494;-2.626;2023-03-21T08:16:24;11.76;86.99
70154;DHT22;57519;51.494;-2.626;2023-03-21T08:18:53;11.97;85.91
70154;DHT22;57519;51.494;-2.626;2023-03-21T08:21:18;12.23;85.25
70154;DHT22;57519;51.494;-2.626;2023-03-21T08:23:43;12.32;85.27
70154;DHT22;57519;51.494;-2.626;2023-03-21T08:26:09;12.31;84.98
70154;DHT22;57519;51.494;-2.626;2023-03-21T08:28:36;12.25;84.91
70154;DHT22;57519;51.494;-2.626;2023-03-21T08:31:08;12.28;84.32
70154;DHT22;57519;51.494;-2.626;2023-03-21T08:37:32;12.40;85.07
70154;DHT22;57519;51.494;-2.626;2023-03-21T08:40:10;12.31;85.08
70154;DHT22;57519;51.494;-2.626;2023-03-21T08:42:38;12.21;86.09
70154;DHT22;57519;51.494;-2.626;2023-03-21T08:45:04;12.08;87.00
70154;DHT22;57519;51.494;-2.626;2023-03-21T08:47:30;11.91;88.11
70154;DHT22;57519;51.494;-2.626;2023-03-21T08:49:56;11.62;89.57
70154;DHT22;57519;51.494;-2.626;2023-03-21T08:52:22;11.39;90.30
70154;DHT22;57519;51.494;-2.626;2023-03-21T08:54:47;11.31;90.26
70154;DHT22;57519;51.494;-2.626;2023-03-21T08:57:13;11.22;89.70
70154;DHT22;57519;51.494;-2.626;2023-03-21T08:59:39;11.18;89.29
70154;DHT22;57519;51.494;-2.626;2023-03-21T09:02:05;11.18;89.33
70154;DHT22;57519;51.494;-2.626;2023-03-21T09:04:31;11.22;89.31
70154;DHT22;57519;51.494;-2.626;2023-03-21T09:06:57;11.21;89.29
70154;DHT22;57519;51.494;-2.626;2023-03-21T09:09:26;11.27;89.40
70154;DHT22;57519;51.494;-2.626;2023-03-21T09:11:52;11.31;88.78
70154;DHT22;57519;51.494;-2.626;2023-03-21T09:14:18;11.43;89.07
70154;DHT22;57519;51.494;-2.626;2023-03-21T09:16:43;11.42;89.28
70154;DHT22;57519;51.494;-2.626;2023-03-21T09:19:09;11.43;89.54
70154;DHT22;57519;51.494;-2.626;2023-03-21T09:21:35;11.55;89.76
70154;DHT22;57519;51.494;-2.626;2023-03-21T09:24:01;11.58;89.94
70154;DHT22;57519;51.494;-2.626;2023-03-21T09:26:27;11.59;90.13
70154;DHT22;57519;51.494;-2.626;2023-03-21T09:28:54;11.56;90.03
70154;DHT22;57519;51.494;-2.626;2023-03-21T09:31:20;11.73;88.70
70154;DHT22;57519;51.494;-2.626;2023-03-21T09:33:51;11.97;88.01
70154;DHT22;57519;51.494;-2.626;2023-03-21T09:36:18;12.16;86.34
70154;DHT22;57519;51.494;-2.626;2023-03-21T09:38:46;12.30;86.43
70154;DHT22;57519;51.494;-2.626;2023-03-21T09:46:40;12.56;85.29
70154;DHT22;57519;51.494;-2.626;2023-03-21T09:49:21;12.55;84.95
70154;DHT22;57519;51.494;-2.626;2023-03-21T09:51:51;12.46;84.52
70154;DHT22;57519;51.494;-2.626;2023-03-21T09:54:25;12.59;85.12
70154;DHT22;57519;51.494;-2.626;2023-03-21T09:56:54;12.61;83.30
70154;DHT22;57519;51.494;-2.626;2023-03-21T09:59:37;12.65;84.03
70154;DHT22;57519;51.494;-2.626;2023-03-21T10:02:33;12.78;84.30
70154;DHT22;57519;51.494;-2.626;2023-03-21T10:05:02;12.97;83.58
70154;DHT22;57519;51.494;-2.626;2023-03-21T10:07:38;13.09;82.40
70154;DHT22;57519;51.494;-2.626;2023-03-21T10:10:05;13.24;82.01
70154;DHT22;57519;51.494;-2.626;2023-03-21T10:12:31;13.21;82.25
70154;DHT22;57519;51.494;-2.626;2023-03-21T10:14:59;13.16;81.93
70154;DHT22;57519;51.494;-2.626;2023-03-21T10:17:32;13.14;81.74
70154;DHT22;57519;51.494;-2.626;2023-03-21T10:20:23;13.10;81.21
70154;DHT22;57519;51.494;-2.626;2023-03-21T10:22:52;13.13;81.44
70154;DHT22;57519;51.494;-2.626;2023-03-21T10:25:20;13.18;81.13
70154;DHT22;57519;51.494;-2.626;2023-03-21T10:27:49;13.41;81.08
70154;DHT22;57519;51.494;-2.626;2023-03-21T10:33:02;13.54;80.22
70154;DHT22;57519;51.494;-2.626;2023-03-21T10:35:30;13.68;79.94
70154;DHT22;57519;51.494;-2.626;2023-03-21T10:37:59;13.58;79.93
70154;DHT22;57519;51.494;-2.626;2023-03-21T10:40:26;13.48;80.18
70154;DHT22;57519;51.494;-2.626;2023-03-21T10:42:55;13.24;80.46
70154;DHT22;57519;51.494;-2.626;2023-03-21T10:45:21;13.10;80.40
70154;DHT22;57519;51.494;-2.626;2023-03-21T10:47:48;12.99;81.20
70154;DHT22;57519;51.494;-2.626;2023-03-21T10:50:17;13.07;81.45
70154;DHT22;57519;51.494;-2.626;2023-03-21T10:52:48;13.07;81.23
70154;DHT22;57519;51.494;-2.626;2023-03-21T10:57:52;13.54;80.17
70154;DHT22;57519;51.494;-2.626;2023-03-21T11:00:22;13.65;79.78
70154;DHT22;57519;51.494;-2.626;2023-03-21T11:02:51;13.33;82.09
70154;DHT22;57519;51.494;-2.626;2023-03-21T11:05:21;12.65;84.82
70154;DHT22;57519;51.494;-2.626;2023-03-21T11:08:05;12.38;86.89
70154;DHT22;57519;51.494;-2.626;2023-03-21T11:10:46;12.25;88.16
70154;DHT22;57519;51.494;-2.626;2023-03-21T11:13:25;12.07;88.80
70154;DHT22;57519;51.494;-2.626;2023-03-21T11:15:56;11.93;88.49
70154;DHT22;57519;51.494;-2.626;2023-03-21T11:18:25;11.82;89.05
70154;DHT22;57519;51.494;-2.626;2023-03-21T11:20:54;11.84;89.21
70154;DHT22;57519;51.494;-2.626;2023-03-21T11:23:21;11.80;88.58
70154;DHT22;57519;51.494;-2.626;2023-03-21T11:25:50;11.93;88.91
70154;DHT22;57519;51.494;-2.626;2023-03-21T11:28:19;12.01;87.75
70154;DHT22;57519;51.494;-2.626;2023-03-21T11:30:54;12.46;87.32
70154;DHT22;57519;51.494;-2.626;2023-03-21T11:33:24;12.51;86.06
70154;DHT22;57519;51.494;-2.626;2023-03-21T11:36:03;12.63;85.91
70154;DHT22;57519;51.494;-2.626;2023-03-21T11:38:34;12.49;83.60
70154;DHT22;57519;51.494;-2.626;2023-03-21T11:41:01;12.62;83.46
70154;DHT22;57519;51.494;-2.626;2023-03-21T11:43:33;12.63;82.26
70154;DHT22;57519;51.494;-2.626;2023-03-21T11:46:12;12.95;83.14
70154;DHT22;57519;51.494;-2.626;2023-03-21T11:48:43;13.16;82.88
70154;DHT22;57519;51.494;-2.626;2023-03-21T11:54:21;13.10;80.36
70154;DHT22;57519;51.494;-2.626;2023-03-21T11:56:52;13.38;81.88
70154;DHT22;57519;51.494;-2.626;2023-03-21T12:12:35;13.34;79.51
70154;DHT22;57519;51.494;-2.626;2023-03-21T12:18:28;13.83;79.76
70154;DHT22;57519;51.494;-2.626;2023-03-21T12:26:22;14.24;77.82
70154;DHT22;57519;51.494;-2.626;2023-03-21T12:35:01;14.71;75.23
70154;DHT22;57519;51.494;-2.626;2023-03-21T12:37:36;14.68;74.46
70154;DHT22;57519;51.494;-2.626;2023-03-21T12:43:00;14.12;74.83
70154;DHT22;57519;51.494;-2.626;2023-03-21T12:45:35;14.17;74.62
70154;DHT22;57519;51.494;-2.626;2023-03-21T12:48:16;13.87;72.51
70154;DHT22;57519;51.494;-2.626;2023-03-21T12:50:44;13.86;74.00
70154;DHT22;57519;51.494;-2.626;2023-03-21T12:53:31;13.69;73.30
70154;DHT22;57519;51.494;-2.626;2023-03-21T12:56:02;13.59;74.31
70154;DHT22;57519;51.494;-2.626;2023-03-21T12:58:30;13.59;74.15
70154;DHT22;57519;51.494;-2.626;2023-03-21T13:00:59;13.58;73.31
70154;DHT22;57519;51.494;-2.626;2023-03-21T13:03:40;13.85;74.54
70154;DHT22;57519;51.494;-2.626;2023-03-21T13:06:12;13.85;73.17
70154;DHT22;57519;51.494;-2.626;2023-03-21T13:11:06;14.06;72.46
70154;DHT22;57519;51.494;-2.626;2023-03-21T13:13:37;14.10;73.30
70154;DHT22;57519;51.494;-2.626;2023-03-21T13:18:40;13.76;71.90
70154;DHT22;57519;51.494;-2.626;2023-03-21T13:21:16;13.72;72.76
70154;DHT22;57519;51.494;-2.626;2023-03-21T13:24:04;13.87;74.88
70154;DHT22;57519;51.494;-2.626;2023-03-21T13:26:41;13.74;72.54
70154;DHT22;57519;51.494;-2.626;2023-03-21T13:29:21;13.69;72.05
70154;DHT22;57519;51.494;-2.626;2023-03-21T13:31:49;14.03;71.29
70154;DHT22;57519;51.494;-2.626;2023-03-21T13:34:14;14.19;70.86
70154;DHT22;57519;51.494;-2.626;2023-03-21T13:36:44;14.20;70.33
70154;DHT22;57519;51.494;-2.626;2023-03-21T13:39:19;14.10;71.70
70154;DHT22;57519;51.494;-2.626;2023-03-21T13:41:47;13.93;71.62
70154;DHT22;57519;51.494;-2.626;2023-03-21T13:47:01;13.78;71.68
70154;DHT22;57519;51.494;-2.626;2023-03-21T13:49:34;14.20;71.18
70154;DHT22;57519;51.494;-2.626;2023-03-21T13:52:24;14.12;71.10
70154;DHT22;57519;51.494;-2.626;2023-03-21T13:54:55;14.09;70.74
70154;DHT22;57519;51.494;-2.626;2023-03-21T14:03:06;14.44;70.00
70154;DHT22;57519;51.494;-2.626;2023-03-21T14:05:33;14.27;70.66
70154;DHT22;57519;51.494;-2.626;2023-03-21T14:08:04;14.29;70.91
70154;DHT22;57519;51.494;-2.626;2023-03-21T14:10:36;14.34;70.83
70154;DHT22;57519;51.494;-2.626;2023-03-21T14:13:07;14.60;70.59
70154;DHT22;57519;51.494;-2.626;2023-03-21T14:15:51;14.89;70.03
70154;DHT22;57519;51.494;-2.626;2023-03-21T14:18:22;14.99;70.20
70154;DHT22;57519;51.494;-2.626;2023-03-21T14:20:52;14.50;70.87
70154;DHT22;57519;51.494;-2.626;2023-03-21T14:23:18;14.24;71.71
70154;DHT22;57519;51.494;-2.626;2023-03-21T14:25:45;13.96;71.47
70154;DHT22;57519;51.494;-2.626;2023-03-21T14:28:19;14.06;71.99
70154;DHT22;57519;51.494;-2.626;2023-03-21T14:30:50;14.53;71.13
70154;DHT22;57519;51.494;-2.626;2023-03-21T14:33:35;14.89;70.59
70154;DHT22;57519;51.494;-2.626;2023-03-21T14:36:08;14.56;69.67
70154;DHT22;57519;51.494;-2.626;2023-03-21T14:38:36;14.70;69.52
70154;DHT22;57519;51.494;-2.626;2023-03-21T14:41:03;14.87;68.39
70154;DHT22;57519;51.494;-2.626;2023-03-21T14:43:29;14.48;68.26
70154;DHT22;57519;51.494;-2.626;2023-03-21T14:45:59;14.37;69.70
70154;DHT22;57519;51.494;-2.626;2023-03-21T14:48:34;14.50;69.86
70154;DHT22;57519;51.494;-2.626;2023-03-21T14:51:05;14.29;69.75
70154;DHT22;57519;51.494;-2.626;2023-03-21T14:53:39;14.09;70.16
70154;DHT22;57519;51.494;-2.626;2023-03-21T14:56:21;14.14;70.81
70154;DHT22;57519;51.494;-2.626;2023-03-21T14:58:48;14.43;69.62
70154;DHT22;57519;51.494;-2.626;2023-03-21T15:01:19;14.63;70.37
70154;DHT22;57519;51.494;-2.626;2023-03-21T15:03:48;14.68;67.45
70154;DHT22;57519;51.494;-2.626;2023-03-21T15:06:14;14.78;68.76
70154;DHT22;57519;51.494;-2.626;2023-03-21T15:08:53;14.74;68.29
70154;DHT22;57519;51.494;-2.626;2023-03-21T15:11:31;14.68;68.06
70154;DHT22;57519;51.494;-2.626;2023-03-21T15:14:02;14.64;68.80
70154;DHT22;57519;51.494;-2.626;2023-03-21T15:16:28;14.51;67.78
70154;DHT22;57519;51.494;-2.626;2023-03-21T15:18:54;14.45;68.00
70154;DHT22;57519;51.494;-2.626;2023-03-21T15:21:34;14.10;68.65
70154;DHT22;57519;51.494;-2.626;2023-03-21T15:26:32;14.19;67.62
70154;DHT22;57519;51.494;-2.626;2023-03-21T15:29:01;14.20;68.05
70154;DHT22;57519;51.494;-2.626;2023-03-21T15:31:30;13.98;67.55
70154;DHT22;57519;51.494;-2.626;2023-03-21T15:33:56;13.99;67.75
70154;DHT22;57519;51.494;-2.626;2023-03-21T15:36:27;13.99;67.52
70154;DHT22;57519;51.494;-2.626;2023-03-21T15:38:54;13.95;67.59
70154;DHT22;57519;51.494;-2.626;2023-03-21T15:43:46;13.98;66.97
70154;DHT22;57519;51.494;-2.626;2023-03-21T15:46:17;13.79;67.77
70154;DHT22;57519;51.494;-2.626;2023-03-21T15:56:06;13.71;68.15
70154;DHT22;57519;51.494;-2.626;2023-03-21T16:02:29;13.96;68.23
70154;DHT22;57519;51.494;-2.626;2023-03-21T16:11:25;13.71;69.00
70154;DHT22;57519;51.494;-2.626;2023-03-21T16:13:54;13.68;70.12
70154;DHT22;57519;51.494;-2.626;2023-03-21T16:16:25;13.66;70.26
70154;DHT22;57519;51.494;-2.626;2023-03-21T16:18:52;13.54;69.79
70154;DHT22;57519;51.494;-2.626;2023-03-21T16:21:21;13.44;70.30
70154;DHT22;57519;51.494;-2.626;2023-03-21T16:23:48;13.46;70.80
70154;DHT22;57519;51.494;-2.626;2023-03-21T16:26:16;13.36;70.17
70154;DHT22;57519;51.494;-2.626;2023-03-21T16:28:42;13.23;70.89
70154;DHT22;57519;51.494;-2.626;2023-03-21T16:31:12;13.14;71.26
70154;DHT22;57519;51.494;-2.626;2023-03-21T16:33:38;13.16;72.03
70154;DHT22;57519;51.494;-2.626;2023-03-21T16:36:04;13.06;72.88
70154;DHT22;57519;51.494;-2.626;2023-03-21T16:38:31;12.99;72.92
70154;DHT22;57519;51.494;-2.626;2023-03-21T16:40:57;12.93;73.23
70154;DHT22;57519;51.494;-2.626;2023-03-21T16:43:25;12.88;72.62
70154;DHT22;57519;51.494;-2.626;2023-03-21T16:45:50;12.76;72.94
70154;DHT22;57519;51.494;-2.626;2023-03-21T16:48:16;12.71;73.13
70154;DHT22;57519;51.494;-2.626;2023-03-21T16:50:45;12.66;73.23
70154;DHT22;57519;51.494;-2.626;2023-03-21T16:53:11;12.66;73.06
70154;DHT22;57519;51.494;-2.626;2023-03-21T16:55:37;12.56;73.08
70154;DHT22;57519;51.494;-2.626;2023-03-21T16:58:03;12.51;73.22
70154;DHT22;57519;51.494;-2.626;2023-03-21T17:00:29;12.49;73.59
70154;DHT22;57519;51.494;-2.626;2023-03-21T17:02:59;12.45;73.37
70154;DHT22;57519;51.494;-2.626;2023-03-21T17:05:26;12.45;73.84
70154;DHT22;57519;51.494;-2.626;2023-03-21T17:07:53;12.46;74.50
70154;DHT22;57519;51.494;-2.626;2023-03-21T17:10:28;12.42;74.65
70154;DHT22;57519;51.494;-2.626;2023-03-21T17:12:54;12.35;74.52
70154;DHT22;57519;51.494;-2.626;2023-03-21T17:15:20;12.41;75.06
70154;DHT22;57519;51.494;-2.626;2023-03-21T17:17:47;12.37;75.33
70154;DHT22;57519;51.494;-2.626;2023-03-21T17:20:22;12.41;75.49
70154;DHT22;57519;51.494;-2.626;2023-03-21T17:22:48;12.35;75.55
70154;DHT22;57519;51.494;-2.626;2023-03-21T17:25:15;12.35;75.59
70154;DHT22;57519;51.494;-2.626;2023-03-21T17:41:45;12.25;76.54
70154;DHT22;57519;51.494;-2.626;2023-03-21T17:44:11;12.20;76.98
70154;DHT22;57519;51.494;-2.626;2023-03-21T17:46:36;12.20;76.85
70154;DHT22;57519;51.494;-2.626;2023-03-21T17:49:02;12.13;77.11
70154;DHT22;57519;51.494;-2.626;2023-03-21T18:08:36;12.23;74.30
70154;DHT22;57519;51.494;-2.626;2023-03-21T18:11:03;12.25;74.01